sensor_id;sensor_type;location;lat;lon;timestamp;P1;durP1;ratioP1;P2;durP2;ratioP2
18296;SDS011;18066;52.106;5.534;2023-06-26T00:00:45;9.23;;;8.13;;
18296;SDS011;18066;52.106;5.534;2023-06-26T00:03:13;10.02;;;9.02;;
18296;SDS011;18066;52.106;5.534;2023-06-26T00:05:40;10.68;;;9.38;;
18296;SDS011;18066;52.106;5.534;2023-06-26T00:08:07;13.75;;;10.25;;
18296;SDS011;18066;52.106;5.534;2023-06-26T00:10:34;11.38;;;9.55;;
18296;SDS011;18066;52.106;5.534;2023-06-26T00:13:02;13.20;;;10.48;;
18296;SDS011;18066;52.106;5.534;2023-06-26T00:15:29;9.48;;;8.23;;
18296;SDS011;18066;52.106;5.534;2023-06-26T00:17:56;10.77;;;9.50;;
18296;SDS011;18066;52.106;5.534;2023-06-26T00:20:23;10.57;;;9.48;;
18296;SDS011;18066;52.106;5.534;2023-06-26T00:22:51;10.82;;;9.40;;
18296;SDS011;18066;52.106;5.534;2023-06-26T00:25:18;17.67;;;10.30;;
18296;SDS011;18066;52.106;5.534;2023-06-26T00:27:46;11.15;;;9.13;;
18296;SDS011;18066;52.106;5.534;2023-06-26T00:30:14;11.95;;;10.65;;
18296;SDS011;18066;52.106;5.534;2023-06-26T00:32:41;10.25;;;9.15;;
18296;SDS011;18066;52.106;5.534;2023-06-26T00:35:07;11.13;;;8.95;;
18296;SDS011;18066;52.106;5.534;2023-06-26T00:37:34;10.40;;;9.30;;
18296;SDS011;18066;52.106;5.534;2023-06-26T00:40:01;11.98;;;8.98;;
18296;SDS011;18066;52.106;5.534;2023-06-26T00:42:30;10.30;;;8.73;;
18296;SDS011;18066;52.106;5.534;2023-06-26T00:44:57;9.77;;;8.55;;
18296;SDS011;18066;52.106;5.534;2023-06-26T00:47:25;10.07;;;8.98;;
18296;SDS011;18066;52.106;5.534;2023-06-26T00:49:52;10.65;;;8.90;;
18296;SDS011;18066;52.106;5.534;2023-06-26T00:52:20;9.57;;;8.18;;
18296;SDS011;18066;52.106;5.534;2023-06-26T00:54:48;11.63;;;8.52;;
18296;SDS011;18066;52.106;5.534;2023-06-26T00:57:16;13.05;;;8.18;;
18296;SDS011;18066;52.106;5.534;2023-06-26T00:59:43;13.32;;;9.35;;
18296;SDS011;18066;52.106;5.534;2023-06-26T01:02:10;10.40;;;9.30;;
18296;SDS011;18066;52.106;5.534;2023-06-26T01:04:38;10.15;;;8.88;;
18296;SDS011;18066;52.106;5.534;2023-06-26T01:07:12;10.05;;;8.20;;
18296;SDS011;18066;52.106;5.534;2023-06-26T01:09:39;10.13;;;8.80;;
18296;SDS011;18066;52.106;5.534;2023-06-26T01:12:06;12.13;;;9.10;;
18296;SDS011;18066;52.106;5.534;2023-06-26T01:14:33;8.93;;;8.02;;
18296;SDS011;18066;52.106;5.534;2023-06-26T01:17:02;9.88;;;8.25;;
18296;SDS011;18066;52.106;5.534;2023-06-26T01:19:29;10.77;;;8.65;;
18296;SDS011;18066;52.106;5.534;2023-06-26T01:22:02;10.27;;;8.07;;
18296;SDS011;18066;52.106;5.534;2023-06-26T01:24:39;11.82;;;8.88;;
18296;SDS011;18066;52.106;5.534;2023-06-26T01:27:15;9.15;;;7.97;;
18296;SDS011;18066;52.106;5.534;2023-06-26T01:29:44;10.10;;;8.38;;
18296;SDS011;18066;52.106;5.534;2023-06-26T01:32:12;9.13;;;8.13;;
18296;SDS011;18066;52.106;5.534;2023-06-26T01:34:40;9.75;;;8.15;;
18296;SDS011;18066;52.106;5.534;2023-06-26T01:37:07;12.18;;;7.97;;
18296;SDS011;18066;52.106;5.534;2023-06-26T01:39:34;8.95;;;7.95;;
18296;SDS011;18066;52.106;5.534;2023-06-26T01:42:01;9.10;;;7.80;;
18296;SDS011;18066;52.106;5.534;2023-06-26T01:44:29;10.75;;;7.63;;
18296;SDS011;18066;52.106;5.534;2023-06-26T01:47:01;9.13;;;7.15;;
18296;SDS011;18066;52.106;5.534;2023-06-26T01:49:31;12.68;;;8.20;;
18296;SDS011;18066;52.106;5.534;2023-06-26T01:52:09;12.93;;;7.97;;
18296;SDS011;18066;52.106;5.534;2023-06-26T01:54:42;17.70;;;8.05;;
18296;SDS011;18066;52.106;5.534;2023-06-26T01:57:14;8.25;;;7.28;;
18296;SDS011;18066;52.106;5.534;2023-06-26T01:59:45;13.07;;;6.70;;
18296;SDS011;18066;52.106;5.534;2023-06-26T02:02:13;9.48;;;6.63;;
18296;SDS011;18066;52.106;5.534;2023-06-26T02:04:40;9.20;;;5.93;;
18296;SDS011;18066;52.106;5.534;2023-06-26T02:07:07;11.02;;;6.10;;
18296;SDS011;18066;52.106;5.534;2023-06-26T02:09:35;8.05;;;5.97;;
18296;SDS011;18066;52.106;5.534;2023-06-26T02:12:02;7.10;;;5.85;;
18296;SDS011;18066;52.106;5.534;2023-06-26T02:14:29;5.55;;;4.95;;
18296;SDS011;18066;52.106;5.534;2023-06-26T02:16:57;7.53;;;5.28;;
18296;SDS011;18066;52.106;5.534;2023-06-26T02:19:25;10.88;;;5.60;;
18296;SDS011;18066;52.106;5.534;2023-06-26T02:21:52;7.63;;;5.75;;
18296;SDS011;18066;52.106;5.534;2023-06-26T02:24:19;10.45;;;5.68;;
18296;SDS011;18066;52.106;5.534;2023-06-26T02:26:46;7.57;;;5.10;;
18296;SDS011;18066;52.106;5.534;2023-06-26T02:29:14;6.15;;;5.00;;
18296;SDS011;18066;52.106;5.534;2023-06-26T02:31:41;8.35;;;5.18;;
18296;SDS011;18066;52.106;5.534;2023-06-26T02:34:09;7.60;;;4.70;;
18296;SDS011;18066;52.106;5.534;2023-06-26T02:36:36;10.05;;;4.35;;
18296;SDS011;18066;52.106;5.534;2023-06-26T02:39:03;8.05;;;4.43;;
18296;SDS011;18066;52.106;5.534;2023-06-26T02:41:30;9.43;;;5.18;;
18296;SDS011;18066;52.106;5.534;2023-06-26T02:43:56;9.75;;;4.78;;
18296;SDS011;18066;52.106;5.534;2023-06-26T02:46:23;7.68;;;4.93;;
18296;SDS011;18066;52.106;5.534;2023-06-26T02:48:50;11.18;;;5.22;;
18296;SDS011;18066;52.106;5.534;2023-06-26T02:51:18;8.02;;;4.57;;
18296;SDS011;18066;52.106;5.534;2023-06-26T02:53:45;6.95;;;4.70;;
18296;SDS011;18066;52.106;5.534;2023-06-26T02:56:12;11.35;;;4.90;;
18296;SDS011;18066;52.106;5.534;2023-06-26T02:58:39;11.23;;;4.88;;
18296;SDS011;18066;52.106;5.534;2023-06-26T03:01:05;10.43;;;4.78;;
18296;SDS011;18066;52.106;5.534;2023-06-26T03:03:33;9.65;;;5.13;;
18296;SDS011;18066;52.106;5.534;2023-06-26T03:06:05;8.07;;;4.80;;
18296;SDS011;18066;52.106;5.534;2023-06-26T03:08:35;11.50;;;5.20;;
18296;SDS011;18066;52.106;5.534;2023-06-26T03:11:03;11.48;;;4.88;;
18296;SDS011;18066;52.106;5.534;2023-06-26T03:13:30;12.07;;;5.03;;
18296;SDS011;18066;52.106;5.534;2023-06-26T03:15:58;9.40;;;4.88;;
18296;SDS011;18066;52.106;5.534;2023-06-26T03:18:24;11.32;;;4.55;;
18296;SDS011;18066;52.106;5.534;2023-06-26T03:20:51;12.75;;;5.45;;
18296;SDS011;18066;52.106;5.534;2023-06-26T03:23:19;10.07;;;4.30;;
18296;SDS011;18066;52.106;5.534;2023-06-26T03:25:48;11.10;;;5.05;;
18296;SDS011;18066;52.106;5.534;2023-06-26T03:28:15;7.32;;;4.70;;
18296;SDS011;18066;52.106;5.534;2023-06-26T03:30:42;12.73;;;4.97;;
18296;SDS011;18066;52.106;5.534;2023-06-26T03:33:09;7.93;;;4.72;;
18296;SDS011;18066;52.106;5.534;2023-06-26T03:35:36;8.30;;;4.53;;
18296;SDS011;18066;52.106;5.534;2023-06-26T03:38:03;9.15;;;4.22;;
18296;SDS011;18066;52.106;5.534;2023-06-26T03:40:30;12.38;;;5.03;;
18296;SDS011;18066;52.106;5.534;2023-06-26T03:42:58;8.48;;;4.57;;
18296;SDS011;18066;52.106;5.534;2023-06-26T03:45:25;12.98;;;4.85;;
18296;SDS011;18066;52.106;5.534;2023-06-26T03:47:52;11.98;;;4.60;;
18296;SDS011;18066;52.106;5.534;2023-06-26T03:50:19;10.80;;;4.63;;
18296;SDS011;18066;52.106;5.534;2023-06-26T03:52:46;8.18;;;4.35;;
18296;SDS011;18066;52.106;5.534;2023-06-26T03:55:17;11.77;;;4.82;;
18296;SDS011;18066;52.106;5.534;2023-06-26T03:57:44;14.30;;;4.55;;
18296;SDS011;18066;52.106;5.534;2023-06-26T04:00:13;10.48;;;4.88;;
18296;SDS011;18066;52.106;5.534;2023-06-26T04:02:40;11.93;;;4.95;;
18296;SDS011;18066;52.106;5.534;2023-06-26T04:05:07;12.82;;;4.72;;
18296;SDS011;18066;52.106;5.534;2023-06-26T04:07:34;13.68;;;4.88;;
18296;SDS011;18066;52.106;5.534;2023-06-26T04:10:01;16.63;;;5.00;;
18296;SDS011;18066;52.106;5.534;2023-06-26T04:12:28;13.50;;;4.82;;
18296;SDS011;18066;52.106;5.534;2023-06-26T04:14:55;13.27;;;5.15;;
18296;SDS011;18066;52.106;5.534;2023-06-26T04:17:23;13.32;;;4.72;;
18296;SDS011;18066;52.106;5.534;2023-06-26T04:19:50;14.70;;;4.90;;
18296;SDS011;18066;52.106;5.534;2023-06-26T04:22:17;11.63;;;5.05;;
18296;SDS011;18066;52.106;5.534;2023-06-26T04:24:44;21.63;;;5.47;;
18296;SDS011;18066;52.106;5.534;2023-06-26T04:27:12;11.18;;;5.40;;
18296;SDS011;18066;52.106;5.534;2023-06-26T04:29:39;14.13;;;4.80;;
18296;SDS011;18066;52.106;5.534;2023-06-26T04:32:06;10.52;;;4.57;;
18296;SDS011;18066;52.106;5.534;2023-06-26T04:34:34;12.50;;;4.93;;
18296;SDS011;18066;52.106;5.534;2023-06-26T04:37:06;13.50;;;5.30;;
18296;SDS011;18066;52.106;5.534;2023-06-26T04:39:34;14.65;;;5.18;;
18296;SDS011;18066;52.106;5.534;2023-06-26T04:42:02;10.68;;;4.47;;
18296;SDS011;18066;52.106;5.534;2023-06-26T04:44:28;14.57;;;5.45;;
18296;SDS011;18066;52.106;5.534;2023-06-26T04:46:55;15.65;;;5.00;;
18296;SDS011;18066;52.106;5.534;2023-06-26T04:49:22;12.23;;;4.88;;
18296;SDS011;18066;52.106;5.534;2023-06-26T04:51:50;9.85;;;4.72;;
18296;SDS011;18066;52.106;5.534;2023-06-26T04:54:18;11.88;;;5.07;;
18296;SDS011;18066;52.106;5.534;2023-06-26T04:56:45;10.65;;;4.95;;
18296;SDS011;18066;52.106;5.534;2023-06-26T04:59:13;12.90;;;5.20;;
18296;SDS011;18066;52.106;5.534;2023-06-26T05:01:40;10.88;;;4.78;;
18296;SDS011;18066;52.106;5.534;2023-06-26T05:04:06;9.55;;;4.35;;
18296;SDS011;18066;52.106;5.534;2023-06-26T05:06:33;12.75;;;4.85;;
18296;SDS011;18066;52.106;5.534;2023-06-26T05:09:01;14.45;;;6.70;;
18296;SDS011;18066;52.106;5.534;2023-06-26T05:11:28;23.35;;;5.03;;
18296;SDS011;18066;52.106;5.534;2023-06-26T05:13:55;6.90;;;3.78;;
18296;SDS011;18066;52.106;5.534;2023-06-26T05:16:22;12.63;;;4.43;;
18296;SDS011;18066;52.106;5.534;2023-06-26T05:18:49;8.90;;;4.63;;
18296;SDS011;18066;52.106;5.534;2023-06-26T05:21:16;11.40;;;3.95;;
18296;SDS011;18066;52.106;5.534;2023-06-26T05:23:43;9.43;;;3.95;;
18296;SDS011;18066;52.106;5.534;2023-06-26T05:26:14;9.75;;;3.75;;
18296;SDS011;18066;52.106;5.534;2023-06-26T05:28:41;9.75;;;3.88;;
18296;SDS011;18066;52.106;5.534;2023-06-26T05:31:13;10.77;;;3.72;;
18296;SDS011;18066;52.106;5.534;2023-06-26T05:33:40;8.07;;;3.60;;
18296;SDS011;18066;52.106;5.534;2023-06-26T05:36:10;13.35;;;4.07;;
18296;SDS011;18066;52.106;5.534;2023-06-26T05:38:39;10.15;;;3.50;;
18296;SDS011;18066;52.106;5.534;2023-06-26T05:41:06;13.65;;;4.18;;
18296;SDS011;18066;52.106;5.534;2023-06-26T05:43:35;8.02;;;3.60;;
18296;SDS011;18066;52.106;5.534;2023-06-26T05:46:02;8.25;;;3.35;;
18296;SDS011;18066;52.106;5.534;2023-06-26T05:48:29;7.70;;;3.60;;
18296;SDS011;18066;52.106;5.534;2023-06-26T05:50:56;9.23;;;4.00;;
18296;SDS011;18066;52.106;5.534;2023-06-26T05:53:23;7.28;;;3.22;;
18296;SDS011;18066;52.106;5.534;2023-06-26T05:55:51;7.63;;;3.20;;
18296;SDS011;18066;52.106;5.534;2023-06-26T05:58:18;10.18;;;2.90;;
18296;SDS011;18066;52.106;5.534;2023-06-26T06:00:49;7.20;;;3.55;;
18296;SDS011;18066;52.106;5.534;2023-06-26T06:03:15;6.63;;;3.28;;
18296;SDS011;18066;52.106;5.534;2023-06-26T06:05:42;7.35;;;3.00;;
18296;SDS011;18066;52.106;5.534;2023-06-26T06:08:09;5.45;;;3.28;;
18296;SDS011;18066;52.106;5.534;2023-06-26T06:10:36;4.43;;;2.88;;
18296;SDS011;18066;52.106;5.534;2023-06-26T06:13:03;7.43;;;3.03;;
18296;SDS011;18066;52.106;5.534;2023-06-26T06:15:30;5.85;;;2.83;;
18296;SDS011;18066;52.106;5.534;2023-06-26T06:17:58;7.68;;;2.60;;
18296;SDS011;18066;52.106;5.534;2023-06-26T06:20:25;4.55;;;2.55;;
18296;SDS011;18066;52.106;5.534;2023-06-26T06:22:51;8.45;;;2.50;;
18296;SDS011;18066;52.106;5.534;2023-06-26T06:25:18;9.85;;;2.70;;
18296;SDS011;18066;52.106;5.534;2023-06-26T06:27:45;6.78;;;2.67;;
18296;SDS011;18066;52.106;5.534;2023-06-26T06:30:12;5.10;;;2.53;;
18296;SDS011;18066;52.106;5.534;2023-06-26T06:32:39;6.07;;;2.20;;
18296;SDS011;18066;52.106;5.534;2023-06-26T06:35:07;4.15;;;2.17;;
18296;SDS011;18066;52.106;5.534;2023-06-26T06:37:35;6.93;;;2.40;;
18296;SDS011;18066;52.106;5.534;2023-06-26T06:40:03;7.07;;;2.20;;
18296;SDS011;18066;52.106;5.534;2023-06-26T06:42:31;7.18;;;2.70;;
18296;SDS011;18066;52.106;5.534;2023-06-26T06:44:58;6.80;;;2.33;;
18296;SDS011;18066;52.106;5.534;2023-06-26T06:47:25;5.07;;;2.83;;
18296;SDS011;18066;52.106;5.534;2023-06-26T06:49:52;9.48;;;2.28;;
18296;SDS011;18066;52.106;5.534;2023-06-26T06:52:20;3.78;;;2.03;;
18296;SDS011;18066;52.106;5.534;2023-06-26T06:54:54;6.82;;;2.60;;
18296;SDS011;18066;52.106;5.534;2023-06-26T06:57:23;9.02;;;3.10;;
18296;SDS011;18066;52.106;5.534;2023-06-26T06:59:50;6.85;;;2.35;;
18296;SDS011;18066;52.106;5.534;2023-06-26T07:02:17;5.93;;;2.55;;
18296;SDS011;18066;52.106;5.534;2023-06-26T07:04:44;5.55;;;2.45;;
18296;SDS011;18066;52.106;5.534;2023-06-26T07:07:11;11.75;;;2.92;;
18296;SDS011;18066;52.106;5.534;2023-06-26T07:09:41;8.10;;;2.45;;
18296;SDS011;18066;52.106;5.534;2023-06-26T07:12:07;5.75;;;2.60;;
18296;SDS011;18066;52.106;5.534;2023-06-26T07:14:35;5.80;;;2.70;;
18296;SDS011;18066;52.106;5.534;2023-06-26T07:17:01;5.07;;;2.67;;
18296;SDS011;18066;52.106;5.534;2023-06-26T07:19:28;5.88;;;2.10;;
18296;SDS011;18066;52.106;5.534;2023-06-26T07:21:55;6.57;;;2.67;;
18296;SDS011;18066;52.106;5.534;2023-06-26T07:24:22;4.65;;;2.65;;
18296;SDS011;18066;52.106;5.534;2023-06-26T07:26:50;6.45;;;2.95;;
18296;SDS011;18066;52.106;5.534;2023-06-26T07:29:17;3.58;;;2.50;;
18296;SDS011;18066;52.106;5.534;2023-06-26T07:31:44;5.32;;;3.00;;
18296;SDS011;18066;52.106;5.534;2023-06-26T07:34:10;6.50;;;2.88;;
18296;SDS011;18066;52.106;5.534;2023-06-26T07:36:37;5.70;;;2.67;;
18296;SDS011;18066;52.106;5.534;2023-06-26T07:39:04;5.50;;;3.03;;
18296;SDS011;18066;52.106;5.534;2023-06-26T07:41:31;8.55;;;2.95;;
18296;SDS011;18066;52.106;5.534;2023-06-26T07:43:59;5.05;;;2.90;;
18296;SDS011;18066;52.106;5.534;2023-06-26T07:46:26;4.32;;;2.60;;
18296;SDS011;18066;52.106;5.534;2023-06-26T07:48:53;6.43;;;2.90;;
18296;SDS011;18066;52.106;5.534;2023-06-26T07:51:20;9.52;;;3.40;;
18296;SDS011;18066;52.106;5.534;2023-06-26T07:53:47;14.32;;;2.92;;
18296;SDS011;18066;52.106;5.534;2023-06-26T07:56:13;7.13;;;2.92;;
18296;SDS011;18066;52.106;5.534;2023-06-26T07:58:40;5.57;;;3.30;;
18296;SDS011;18066;52.106;5.534;2023-06-26T08:01:08;6.47;;;3.00;;
18296;SDS011;18066;52.106;5.534;2023-06-26T08:03:36;5.22;;;2.80;;
18296;SDS011;18066;52.106;5.534;2023-06-26T08:06:02;8.55;;;2.90;;
18296;SDS011;18066;52.106;5.534;2023-06-26T08:08:29;5.22;;;2.75;;
18296;SDS011;18066;52.106;5.534;2023-06-26T08:10:56;7.80;;;3.22;;
18296;SDS011;18066;52.106;5.534;2023-06-26T08:13:23;5.80;;;3.00;;
18296;SDS011;18066;52.106;5.534;2023-06-26T08:15:50;7.00;;;2.72;;
18296;SDS011;18066;52.106;5.534;2023-06-26T08:18:18;5.60;;;2.53;;
18296;SDS011;18066;52.106;5.534;2023-06-26T08:20:45;3.90;;;2.75;;
18296;SDS011;18066;52.106;5.534;2023-06-26T08:23:12;6.05;;;3.20;;
18296;SDS011;18066;52.106;5.534;2023-06-26T08:25:39;8.00;;;3.25;;
18296;SDS011;18066;52.106;5.534;2023-06-26T08:28:06;4.75;;;3.00;;
18296;SDS011;18066;52.106;5.534;2023-06-26T08:30:33;3.95;;;2.60;;
18296;SDS011;18066;52.106;5.534;2023-06-26T08:32:59;8.45;;;3.10;;
18296;SDS011;18066;52.106;5.534;2023-06-26T08:35:28;6.90;;;2.67;;
18296;SDS011;18066;52.106;5.534;2023-06-26T08:37:54;7.68;;;2.85;;
18296;SDS011;18066;52.106;5.534;2023-06-26T08:40:21;6.43;;;2.70;;
18296;SDS011;18066;52.106;5.534;2023-06-26T08:42:48;7.45;;;2.25;;
18296;SDS011;18066;52.106;5.534;2023-06-26T08:45:18;7.00;;;2.47;;
18296;SDS011;18066;52.106;5.534;2023-06-26T08:47:45;5.55;;;2.22;;
18296;SDS011;18066;52.106;5.534;2023-06-26T08:50:16;8.30;;;2.38;;
18296;SDS011;18066;52.106;5.534;2023-06-26T08:52:53;4.45;;;2.10;;
18296;SDS011;18066;52.106;5.534;2023-06-26T08:55:23;4.80;;;2.17;;
18296;SDS011;18066;52.106;5.534;2023-06-26T08:57:52;6.60;;;2.15;;
18296;SDS011;18066;52.106;5.534;2023-06-26T09:00:19;7.07;;;1.45;;
18296;SDS011;18066;52.106;5.534;2023-06-26T09:02:46;3.78;;;1.42;;
18296;SDS011;18066;52.106;5.534;2023-06-26T09:05:13;6.20;;;2.05;;
18296;SDS011;18066;52.106;5.534;2023-06-26T09:07:40;3.80;;;1.85;;
18296;SDS011;18066;52.106;5.534;2023-06-26T09:10:09;4.00;;;1.65;;
18296;SDS011;18066;52.106;5.534;2023-06-26T09:12:36;6.72;;;1.73;;
18296;SDS011;18066;52.106;5.534;2023-06-26T09:15:05;5.10;;;1.23;;
18296;SDS011;18066;52.106;5.534;2023-06-26T09:17:33;3.25;;;1.20;;
18296;SDS011;18066;52.106;5.534;2023-06-26T09:20:06;5.00;;;1.40;;
18296;SDS011;18066;52.106;5.534;2023-06-26T09:22:36;7.40;;;1.40;;
18296;SDS011;18066;52.106;5.534;2023-06-26T09:25:04;3.63;;;1.15;;
18296;SDS011;18066;52.106;5.534;2023-06-26T09:27:33;5.00;;;1.40;;
18296;SDS011;18066;52.106;5.534;2023-06-26T09:30:01;4.68;;;1.50;;
18296;SDS011;18066;52.106;5.534;2023-06-26T09:32:28;4.68;;;1.60;;
18296;SDS011;18066;52.106;5.534;2023-06-26T09:34:55;2.85;;;1.55;;
18296;SDS011;18066;52.106;5.534;2023-06-26T09:37:22;3.95;;;1.38;;
18296;SDS011;18066;52.106;5.534;2023-06-26T09:39:50;5.10;;;1.45;;
18296;SDS011;18066;52.106;5.534;2023-06-26T09:42:17;4.80;;;1.48;;
18296;SDS011;18066;52.106;5.534;2023-06-26T09:44:46;5.85;;;1.75;;
18296;SDS011;18066;52.106;5.534;2023-06-26T09:47:15;3.28;;;1.48;;
18296;SDS011;18066;52.106;5.534;2023-06-26T09:49:43;7.82;;;1.52;;
18296;SDS011;18066;52.106;5.534;2023-06-26T09:52:11;6.63;;;1.65;;
18296;SDS011;18066;52.106;5.534;2023-06-26T09:54:41;5.80;;;2.13;;
18296;SDS011;18066;52.106;5.534;2023-06-26T09:57:10;4.68;;;1.35;;
18296;SDS011;18066;52.106;5.534;2023-06-26T09:59:37;3.20;;;1.35;;
18296;SDS011;18066;52.106;5.534;2023-06-26T10:02:06;5.88;;;1.60;;
18296;SDS011;18066;52.106;5.534;2023-06-26T10:04:35;4.85;;;1.38;;
18296;SDS011;18066;52.106;5.534;2023-06-26T10:07:04;3.30;;;1.10;;
18296;SDS011;18066;52.106;5.534;2023-06-26T10:09:32;6.55;;;1.30;;
18296;SDS011;18066;52.106;5.534;2023-06-26T10:12:02;1.30;;;1.02;;
18296;SDS011;18066;52.106;5.534;2023-06-26T10:14:33;3.22;;;1.40;;
18296;SDS011;18066;52.106;5.534;2023-06-26T10:17:01;2.97;;;1.10;;
18296;SDS011;18066;52.106;5.534;2023-06-26T10:19:33;2.08;;;1.20;;
18296;SDS011;18066;52.106;5.534;2023-06-26T10:22:04;2.35;;;1.13;;
18296;SDS011;18066;52.106;5.534;2023-06-26T10:24:31;5.20;;;1.45;;
18296;SDS011;18066;52.106;5.534;2023-06-26T10:27:02;1.35;;;1.05;;
18296;SDS011;18066;52.106;5.534;2023-06-26T10:29:34;8.60;;;1.30;;
18296;SDS011;18066;52.106;5.534;2023-06-26T10:32:02;2.38;;;1.40;;
18296;SDS011;18066;52.106;5.534;2023-06-26T10:34:31;5.15;;;1.80;;
18296;SDS011;18066;52.106;5.534;2023-06-26T10:37:02;3.15;;;1.35;;
18296;SDS011;18066;52.106;5.534;2023-06-26T10:39:36;4.60;;;1.60;;
18296;SDS011;18066;52.106;5.534;2023-06-26T10:42:15;3.90;;;1.50;;
18296;SDS011;18066;52.106;5.534;2023-06-26T10:44:42;4.93;;;1.35;;
18296;SDS011;18066;52.106;5.534;2023-06-26T10:47:11;4.18;;;1.40;;
18296;SDS011;18066;52.106;5.534;2023-06-26T10:49:57;6.75;;;1.60;;
18296;SDS011;18066;52.106;5.534;2023-06-26T10:52:45;6.88;;;1.40;;
18296;SDS011;18066;52.106;5.534;2023-06-26T10:55:13;2.42;;;1.30;;
18296;SDS011;18066;52.106;5.534;2023-06-26T10:57:44;4.57;;;1.20;;
18296;SDS011;18066;52.106;5.534;2023-06-26T11:00:14;8.27;;;1.60;;
18296;SDS011;18066;52.106;5.534;2023-06-26T11:02:49;3.83;;;1.50;;
18296;SDS011;18066;52.106;5.534;2023-06-26T11:05:24;2.33;;;1.17;;
18296;SDS011;18066;52.106;5.534;2023-06-26T11:08:07;2.53;;;1.25;;
18296;SDS011;18066;52.106;5.534;2023-06-26T11:10:47;5.72;;;1.30;;
18296;SDS011;18066;52.106;5.534;2023-06-26T11:13:16;3.63;;;1.27;;
18296;SDS011;18066;52.106;5.534;2023-06-26T11:15:44;3.03;;;1.00;;
18296;SDS011;18066;52.106;5.534;2023-06-26T11:18:12;4.70;;;1.10;;
18296;SDS011;18066;52.106;5.534;2023-06-26T11:20:39;3.85;;;1.13;;
18296;SDS011;18066;52.106;5.534;2023-06-26T11:23:08;2.47;;;1.20;;
18296;SDS011;18066;52.106;5.534;2023-06-26T11:25:36;7.40;;;1.67;;
18296;SDS011;18066;52.106;5.534;2023-06-26T11:28:04;2.38;;;0.98;;
18296;SDS011;18066;52.106;5.534;2023-06-26T11:30:32;2.05;;;1.10;;
18296;SDS011;18066;52.106;5.534;2023-06-26T11:33:02;4.22;;;1.15;;
18296;SDS011;18066;52.106;5.534;2023-06-26T11:35:30;2.45;;;1.15;;
18296;SDS011;18066;52.106;5.534;2023-06-26T11:37:56;6.95;;;1.95;;
18296;SDS011;18066;52.106;5.534;2023-06-26T11:40:26;6.28;;;1.50;;
18296;SDS011;18066;52.106;5.534;2023-06-26T11:42:56;2.05;;;1.35;;
18296;SDS011;18066;52.106;5.534;2023-06-26T11:45:24;4.38;;;1.25;;
18296;SDS011;18066;52.106;5.534;2023-06-26T11:47:51;3.25;;;1.23;;
18296;SDS011;18066;52.106;5.534;2023-06-26T11:50:17;2.47;;;1.20;;
18296;SDS011;18066;52.106;5.534;2023-06-26T11:52:44;3.35;;;1.00;;
18296;SDS011;18066;52.106;5.534;2023-06-26T11:55:11;2.78;;;0.93;;
18296;SDS011;18066;52.106;5.534;2023-06-26T11:57:39;3.35;;;1.27;;
18296;SDS011;18066;52.106;5.534;2023-06-26T12:00:13;3.20;;;1.30;;
18296;SDS011;18066;52.106;5.534;2023-06-26T12:02:40;2.95;;;1.15;;
18296;SDS011;18066;52.106;5.534;2023-06-26T12:05:08;4.55;;;0.88;;
18296;SDS011;18066;52.106;5.534;2023-06-26T12:07:35;2.28;;;1.10;;
18296;SDS011;18066;52.106;5.534;2023-06-26T12:23:12;1.27;;;0.75;;
18296;SDS011;18066;52.106;5.534;2023-06-26T12:25:39;5.85;;;0.93;;
18296;SDS011;18066;52.106;5.534;2023-06-26T12:28:14;3.53;;;0.95;;
18296;SDS011;18066;52.106;5.534;2023-06-26T12:30:45;2.08;;;0.85;;
18296;SDS011;18066;52.106;5.534;2023-06-26T12:33:14;3.15;;;0.85;;
18296;SDS011;18066;52.106;5.534;2023-06-26T12:35:41;2.22;;;0.90;;
18296;SDS011;18066;52.106;5.534;2023-06-26T12:38:09;1.48;;;1.00;;
18296;SDS011;18066;52.106;5.534;2023-06-26T12:40:45;6.10;;;0.73;;
18296;SDS011;18066;52.106;5.534;2023-06-26T12:43:22;4.30;;;0.93;;
18296;SDS011;18066;52.106;5.534;2023-06-26T12:45:53;1.90;;;0.75;;
18296;SDS011;18066;52.106;5.534;2023-06-26T12:48:20;3.33;;;0.60;;
18296;SDS011;18066;52.106;5.534;2023-06-26T12:50:47;3.70;;;0.90;;
18296;SDS011;18066;52.106;5.534;2023-06-26T12:53:15;7.00;;;0.88;;
18296;SDS011;18066;52.106;5.534;2023-06-26T12:55:42;2.58;;;0.80;;
18296;SDS011;18066;52.106;5.534;2023-06-26T12:58:10;3.65;;;0.80;;
18296;SDS011;18066;52.106;5.534;2023-06-26T13:00:37;1.45;;;0.93;;
18296;SDS011;18066;52.106;5.534;2023-06-26T13:03:04;5.38;;;0.80;;
18296;SDS011;18066;52.106;5.534;2023-06-26T13:05:31;3.80;;;0.90;;
18296;SDS011;18066;52.106;5.534;2023-06-26T13:07:57;3.80;;;0.85;;
18296;SDS011;18066;52.106;5.534;2023-06-26T13:10:25;5.35;;;1.00;;
18296;SDS011;18066;52.106;5.534;2023-06-26T13:12:54;2.45;;;0.82;;
18296;SDS011;18066;52.106;5.534;2023-06-26T13:15:22;3.00;;;0.98;;
18296;SDS011;18066;52.106;5.534;2023-06-26T13:17:48;2.45;;;0.90;;
18296;SDS011;18066;52.106;5.534;2023-06-26T13:20:15;4.03;;;0.70;;
18296;SDS011;18066;52.106;5.534;2023-06-26T13:22:42;2.42;;;0.90;;
18296;SDS011;18066;52.106;5.534;2023-06-26T13:25:11;5.18;;;1.00;;
18296;SDS011;18066;52.106;5.534;2023-06-26T13:27:37;2.40;;;1.02;;
18296;SDS011;18066;52.106;5.534;2023-06-26T13:30:05;3.50;;;0.80;;
18296;SDS011;18066;52.106;5.534;2023-06-26T13:32:34;2.35;;;0.95;;
18296;SDS011;18066;52.106;5.534;2023-06-26T13:35:01;3.45;;;0.80;;
18296;SDS011;18066;52.106;5.534;2023-06-26T13:37:28;1.60;;;0.80;;
18296;SDS011;18066;52.106;5.534;2023-06-26T13:39:55;2.80;;;0.90;;
18296;SDS011;18066;52.106;5.534;2023-06-26T13:42:24;2.30;;;0.80;;
18296;SDS011;18066;52.106;5.534;2023-06-26T13:44:51;4.72;;;0.98;;
18296;SDS011;18066;52.106;5.534;2023-06-26T13:47:18;4.55;;;1.00;;
18296;SDS011;18066;52.106;5.534;2023-06-26T13:49:46;4.22;;;1.00;;
18296;SDS011;18066;52.106;5.534;2023-06-26T13:52:12;4.55;;;0.82;;
18296;SDS011;18066;52.106;5.534;2023-06-26T13:54:39;3.25;;;0.90;;
18296;SDS011;18066;52.106;5.534;2023-06-26T13:57:07;3.17;;;0.95;;
18296;SDS011;18066;52.106;5.534;2023-06-26T13:59:36;2.97;;;0.68;;
18296;SDS011;18066;52.106;5.534;2023-06-26T14:02:04;2.45;;;0.55;;
18296;SDS011;18066;52.106;5.534;2023-06-26T14:04:31;4.43;;;1.20;;
18296;SDS011;18066;52.106;5.534;2023-06-26T14:06:59;3.60;;;0.98;;
18296;SDS011;18066;52.106;5.534;2023-06-26T14:09:26;3.90;;;1.15;;
18296;SDS011;18066;52.106;5.534;2023-06-26T14:11:53;1.60;;;0.75;;
18296;SDS011;18066;52.106;5.534;2023-06-26T14:14:20;4.88;;;0.88;;
18296;SDS011;18066;52.106;5.534;2023-06-26T14:16:47;3.15;;;0.95;;
18296;SDS011;18066;52.106;5.534;2023-06-26T14:19:15;3.05;;;1.00;;
18296;SDS011;18066;52.106;5.534;2023-06-26T14:21:43;1.92;;;0.93;;
18296;SDS011;18066;52.106;5.534;2023-06-26T14:24:12;3.13;;;1.17;;
18296;SDS011;18066;52.106;5.534;2023-06-26T14:26:38;1.55;;;0.82;;
18296;SDS011;18066;52.106;5.534;2023-06-26T14:29:06;4.68;;;0.82;;
18296;SDS011;18066;52.106;5.534;2023-06-26T14:31:32;3.45;;;1.17;;
18296;SDS011;18066;52.106;5.534;2023-06-26T14:33:59;3.42;;;0.90;;
18296;SDS011;18066;52.106;5.534;2023-06-26T14:36:28;3.25;;;0.70;;
18296;SDS011;18066;52.106;5.534;2023-06-26T14:38:56;2.65;;;0.95;;
18296;SDS011;18066;52.106;5.534;2023-06-26T14:41:25;1.75;;;0.90;;
18296;SDS011;18066;52.106;5.534;2023-06-26T14:43:52;4.47;;;0.90;;
18296;SDS011;18066;52.106;5.534;2023-06-26T14:46:19;2.22;;;0.60;;
18296;SDS011;18066;52.106;5.534;2023-06-26T14:48:46;2.60;;;0.90;;
18296;SDS011;18066;52.106;5.534;2023-06-26T14:51:14;3.15;;;0.82;;
18296;SDS011;18066;52.106;5.534;2023-06-26T14:53:40;2.05;;;0.70;;
18296;SDS011;18066;52.106;5.534;2023-06-26T14:56:07;1.90;;;0.90;;
18296;SDS011;18066;52.106;5.534;2023-06-26T14:58:35;3.35;;;0.98;;
18296;SDS011;18066;52.106;5.534;2023-06-26T15:01:02;6.57;;;0.90;;